createdAt,value
2022-12-17T00:00:28.491Z,-0.20
2022-12-17T00:03:17.507Z,-0.10
2022-12-17T00:06:03.625Z,-0.10
2022-12-17T00:08:49.250Z,0.00
2022-12-17T00:11:34.428Z,0.20
2022-12-17T00:14:20.087Z,0.10
2022-12-17T00:17:05.879Z,0.10
2022-12-17T00:19:52.651Z,-0.10
2022-12-17T00:22:41.786Z,-0.20
2022-12-17T00:25:24.261Z,0.00
2022-12-17T00:28:09.921Z,-0.20
2022-12-17T00:30:55.489Z,-0.10
2022-12-17T00:33:40.987Z,0.00
2022-12-17T00:36:28.021Z,0.10
2022-12-17T00:39:18.976Z,0.00
2022-12-17T00:42:04.713Z,0.10
2022-12-17T00:44:50.404Z,0.20
2022-12-17T00:47:35.918Z,0.30
2022-12-17T00:50:21.587Z,0.10
2022-12-17T00:53:11.116Z,0.10
2022-12-17T00:56:05.531Z,0.00
2022-12-17T00:58:51.139Z,0.10
2022-12-17T01:01:37.623Z,0.30
2022-12-17T01:04:23.775Z,0.20
2022-12-17T01:07:14.512Z,0.10
2022-12-17T01:10:12.629Z,0.20
2022-12-17T01:12:58.331Z,0.10
2022-12-17T01:15:43.996Z,0.10
2022-12-17T01:18:36.370Z,0.10
2022-12-17T01:21:22.223Z,0.00
2022-12-17T01:24:18.993Z,0.10
2022-12-17T01:27:06.335Z,-0.10
2022-12-17T01:29:52.254Z,-0.10
2022-12-17T01:32:37.581Z,-0.20
2022-12-17T01:35:38.339Z,0.00
2022-12-17T01:38:29.462Z,0.00
2022-12-17T01:41:15.219Z,0.10
2022-12-17T01:44:02.629Z,0.00
2022-12-17T01:46:51.732Z,0.00
2022-12-17T01:49:54.411Z,0.10
2022-12-17T01:52:39.998Z,0.10
2022-12-17T01:55:26.038Z,-0.10
2022-12-17T01:58:11.577Z,-0.10
2022-12-17T02:00:58.270Z,-0.30
2022-12-17T02:03:44.116Z,-0.30
2022-12-17T02:06:35.759Z,-0.20
2022-12-17T02:09:29.867Z,-0.20
2022-12-17T02:12:22.342Z,-0.10
2022-12-17T02:15:17.699Z,-0.10
2022-12-17T02:18:09.859Z,0.00
2022-12-17T02:21:00.707Z,0.00
2022-12-17T02:23:56.504Z,-0.10
2022-12-17T02:26:54.501Z,-0.20
2022-12-17T02:29:42.346Z,-0.40
2022-12-17T02:32:29.367Z,-0.30
2022-12-17T02:35:16.390Z,-0.50
2022-12-17T02:38:05.240Z,-0.50
2022-12-17T02:40:52.668Z,-0.60
2022-12-17T02:43:42.086Z,0.20
2022-12-17T02:46:28.829Z,-0.60
2022-12-17T02:49:14.226Z,-0.70
2022-12-17T02:52:01.187Z,-0.70
2022-12-17T02:54:48.422Z,-0.90
2022-12-17T02:57:34.152Z,-0.50
2022-12-17T03:00:21.014Z,-0.80
2022-12-17T03:03:06.722Z,-0.30
2022-12-17T03:05:51.973Z,-0.60
2022-12-17T03:08:37.604Z,-0.50
2022-12-17T03:11:23.038Z,-0.50
2022-12-17T03:14:08.658Z,-0.40
2022-12-17T03:16:57.785Z,-0.40
2022-12-17T03:19:43.441Z,-0.40
2022-12-17T03:22:28.684Z,-0.50
2022-12-17T03:25:14.461Z,-0.40
2022-12-17T03:27:58.869Z,-0.40
2022-12-17T03:30:48.900Z,-0.50
2022-12-17T03:33:36.285Z,-0.50
2022-12-17T03:36:22.303Z,-0.40
2022-12-17T03:39:07.977Z,-0.30
2022-12-17T03:41:53.616Z,-0.30
2022-12-17T03:44:38.904Z,0.30
2022-12-17T03:47:24.360Z,-0.30
2022-12-17T03:50:11.445Z,-0.30
2022-12-17T03:52:56.792Z,-0.30
2022-12-17T03:55:42.274Z,-0.40
2022-12-17T03:58:27.722Z,-0.40
2022-12-17T04:01:13.235Z,-0.50
2022-12-17T04:03:58.596Z,-0.50
2022-12-17T04:06:45.601Z,-0.40
2022-12-17T04:09:31.241Z,-0.40
2022-12-17T04:12:15.932Z,-0.40
2022-12-17T04:15:01.817Z,-0.30
2022-12-17T04:17:47.408Z,-0.40
2022-12-17T04:20:32.836Z,-0.50
2022-12-17T04:23:19.764Z,-0.50
2022-12-17T04:26:05.161Z,-0.50
2022-12-17T04:28:50.874Z,-0.60
2022-12-17T04:31:36.917Z,-0.60
2022-12-17T04:34:22.208Z,-0.60
2022-12-17T04:37:07.590Z,-0.60
2022-12-17T04:39:54.379Z,-0.40
2022-12-17T04:42:39.702Z,-0.30
2022-12-17T04:45:26.100Z,-0.30
2022-12-17T04:48:19.770Z,-0.50
2022-12-17T04:51:04.920Z,-0.40
2022-12-17T04:53:50.565Z,-0.60
2022-12-17T04:56:37.349Z,-0.60
2022-12-17T04:59:22.846Z,-0.70
2022-12-17T05:02:08.547Z,-0.80
2022-12-17T05:04:54.020Z,-0.70
2022-12-17T05:07:39.558Z,-0.70
2022-12-17T05:10:25.655Z,-0.80
2022-12-17T05:13:17.040Z,-0.80
2022-12-17T05:16:02.631Z,-0.60
2022-12-17T05:18:48.006Z,-0.60
2022-12-17T05:21:33.749Z,-0.30
2022-12-17T05:24:19.085Z,-0.50
2022-12-17T05:27:04.760Z,-0.60
2022-12-17T05:29:51.651Z,-0.70
2022-12-17T05:32:37.304Z,-0.60
2022-12-17T05:35:23.319Z,-0.50
2022-12-17T05:38:08.952Z,-0.50
2022-12-17T05:40:54.583Z,-0.50
2022-12-17T05:43:40.263Z,-0.50
2022-12-17T05:46:27.279Z,-0.50
2022-12-17T05:49:13.052Z,-0.60
2022-12-17T05:51:58.414Z,-0.60
2022-12-17T05:54:44.037Z,-0.60
2022-12-17T05:57:29.483Z,-0.40
2022-12-17T06:00:15.008Z,-0.50
2022-12-17T06:03:01.897Z,-0.60
2022-12-17T06:05:47.195Z,-0.50
2022-12-17T06:08:32.896Z,-0.50
2022-12-17T06:11:18.979Z,0.20
2022-12-17T06:14:05.389Z,-0.50
2022-12-17T06:16:50.639Z,-0.70
2022-12-17T06:19:37.324Z,-0.80
2022-12-17T06:22:22.903Z,-1.00
2022-12-17T06:25:08.673Z,-1.00
2022-12-17T06:27:54.059Z,-1.10
2022-12-17T06:30:39.598Z,-1.10
2022-12-17T06:33:25.857Z,-1.10
2022-12-17T06:36:21.313Z,-1.10
2022-12-17T06:39:07.620Z,-1.20
2022-12-17T06:41:53.094Z,-1.20
2022-12-17T06:44:57.389Z,-1.10
2022-12-17T06:47:42.883Z,-1.20
2022-12-17T06:50:28.700Z,-1.30
2022-12-17T06:53:19.655Z,-1.30
2022-12-17T06:56:05.178Z,-1.30
2022-12-17T06:58:50.921Z,-1.20
2022-12-17T07:01:37.083Z,-1.10
2022-12-17T07:04:31.041Z,-1.10
2022-12-17T07:07:18.104Z,-1.00
2022-12-17T07:10:13.700Z,-1.00
2022-12-17T07:12:59.417Z,-1.10
2022-12-17T07:15:45.130Z,-1.10
2022-12-17T07:18:30.837Z,-1.20
2022-12-17T07:21:16.441Z,-1.30
2022-12-17T07:24:02.124Z,-1.30
2022-12-17T07:26:49.797Z,-1.40
2022-12-17T07:29:35.163Z,-1.40
2022-12-17T07:32:20.434Z,-1.40
2022-12-17T07:35:14.131Z,-1.50
2022-12-17T07:37:59.782Z,-1.40
2022-12-17T07:40:45.432Z,-1.50
2022-12-17T07:43:33.663Z,-1.50
2022-12-17T07:46:19.371Z,-1.50
2022-12-17T07:49:05.205Z,-1.60
2022-12-17T07:51:50.879Z,-1.60
2022-12-17T07:54:36.421Z,-1.70
2022-12-17T07:57:21.987Z,-1.60
2022-12-17T08:00:08.570Z,-1.50
2022-12-17T08:02:54.235Z,-1.50
2022-12-17T08:05:39.637Z,-1.40
2022-12-17T08:08:28.725Z,-1.40
2022-12-17T08:11:14.068Z,-1.30
2022-12-17T08:13:59.810Z,-1.20
2022-12-17T08:16:46.474Z,-1.10
2022-12-17T08:19:32.430Z,-1.20
2022-12-17T08:22:17.720Z,-1.10
2022-12-17T08:25:03.199Z,-0.80
2022-12-17T08:27:49.344Z,-0.80
2022-12-17T08:30:35.107Z,-0.70
2022-12-17T08:33:22.918Z,-0.60
2022-12-17T08:36:11.974Z,-0.60
2022-12-17T08:38:57.523Z,-0.60
2022-12-17T08:41:42.832Z,-0.50
2022-12-17T08:44:28.298Z,-0.30
2022-12-17T08:47:13.905Z,-0.60
2022-12-17T08:50:05.897Z,-0.40
2022-12-17T08:52:51.686Z,-0.30
2022-12-17T08:55:37.219Z,-0.20
2022-12-17T08:58:22.634Z,-0.40
2022-12-17T09:01:08.368Z,-0.20
2022-12-17T09:03:53.722Z,-0.10
2022-12-17T09:06:40.411Z,-0.30
2022-12-17T09:09:40.250Z,-0.30
2022-12-17T09:12:25.793Z,-0.10
2022-12-17T09:15:11.239Z,0.20
2022-12-17T09:17:56.899Z,0.50
2022-12-17T09:20:42.417Z,0.50
2022-12-17T09:23:33.715Z,0.60
2022-12-17T09:26:19.392Z,0.70
2022-12-17T09:29:04.759Z,0.80
2022-12-17T09:31:51.680Z,0.60
2022-12-17T09:34:37.339Z,0.50
2022-12-17T09:37:23.373Z,0.50
2022-12-17T09:40:10.292Z,0.50
2022-12-17T09:43:03.003Z,0.30
2022-12-17T09:45:54.943Z,0.10
2022-12-17T09:48:47.603Z,-0.30
2022-12-17T09:51:40.214Z,-0.10
2022-12-17T09:54:33.830Z,0.00
2022-12-17T09:57:20.986Z,-0.10
2022-12-17T10:00:06.578Z,-0.20
2022-12-17T10:02:54.834Z,-0.20
2022-12-17T10:05:44.241Z,-0.30
2022-12-17T10:08:33.486Z,-0.20
2022-12-17T10:11:34.571Z,-0.30
2022-12-17T10:14:22.675Z,-0.20
2022-12-17T10:17:11.885Z,-0.40
2022-12-17T10:20:00.179Z,-0.40
2022-12-17T10:22:46.056Z,-0.40
2022-12-17T10:25:46.577Z,-0.40
2022-12-17T10:28:33.858Z,-0.40
2022-12-17T10:31:25.870Z,-0.20
2022-12-17T10:34:14.797Z,0.00
2022-12-17T10:37:04.720Z,0.00
2022-12-17T10:39:50.749Z,0.00
2022-12-17T10:42:41.591Z,0.10
2022-12-17T10:45:42.313Z,-0.10
2022-12-17T10:48:40.602Z,-0.10
2022-12-17T10:51:38.624Z,-0.30
2022-12-17T10:54:33.858Z,-0.20
2022-12-17T10:57:19.967Z,-0.30
2022-12-17T11:00:05.974Z,-0.40
2022-12-17T11:02:51.065Z,-0.40
2022-12-17T11:05:44.169Z,-0.40
2022-12-17T11:08:32.174Z,-0.30
2022-12-17T11:11:21.531Z,-0.40
2022-12-17T11:14:09.465Z,-0.20
2022-12-17T11:17:01.050Z,0.20
2022-12-17T11:19:56.785Z,-0.30
2022-12-17T11:22:49.599Z,-0.10
2022-12-17T11:25:51.749Z,0.10
2022-12-17T11:28:41.635Z,0.20
2022-12-17T11:31:45.588Z,0.20
2022-12-17T11:34:40.598Z,0.00
2022-12-17T11:37:34.199Z,-0.10
2022-12-17T11:40:35.785Z,-0.10
2022-12-17T11:43:30.522Z,-0.20
2022-12-17T11:46:25.587Z,-0.20
2022-12-17T11:49:18.493Z,-0.20
2022-12-17T11:52:12.222Z,-0.30
2022-12-17T11:55:05.926Z,-0.40
2022-12-17T11:58:00.568Z,-0.30
2022-12-17T12:00:46.090Z,-0.20
2022-12-17T12:03:47.657Z,-0.10
2022-12-17T12:06:42.275Z,0.70
2022-12-17T12:09:34.786Z,0.00
2022-12-17T12:12:25.882Z,0.00
2022-12-17T12:15:22.931Z,0.10
2022-12-17T12:18:14.679Z,0.00
2022-12-17T12:21:19.258Z,-0.20
2022-12-17T12:24:14.858Z,-0.10
2022-12-17T12:27:07.980Z,0.30
2022-12-17T12:30:01.252Z,0.00
2022-12-17T12:33:12.052Z,0.00
2022-12-17T12:35:59.056Z,-0.10
2022-12-17T12:38:49.366Z,-0.10
2022-12-17T12:41:49.999Z,-0.10
2022-12-17T12:44:40.578Z,-0.10
2022-12-17T12:47:29.573Z,-0.10
2022-12-17T12:50:24.301Z,-0.20
2022-12-17T12:53:10.031Z,-0.30
2022-12-17T12:55:57.111Z,-0.30
2022-12-17T12:58:48.317Z,0.00
2022-12-17T13:01:34.690Z,0.10
2022-12-17T13:04:32.964Z,0.00
2022-12-17T13:07:02.315Z,0.10
2022-12-17T13:09:39.847Z,0.00
2022-12-17T13:12:29.846Z,0.00
2022-12-17T13:15:16.824Z,0.00
2022-12-17T13:17:56.199Z,-0.10
2022-12-17T13:20:30.853Z,-0.20
2022-12-17T13:23:30.138Z,-0.30
2022-12-17T13:26:16.099Z,-0.20
2022-12-17T13:28:49.101Z,-0.40
2022-12-17T13:31:20.179Z,-0.40
2022-12-17T13:33:52.574Z,-0.30
2022-12-17T13:36:28.915Z,-0.30
2022-12-17T13:39:05.058Z,-0.50
2022-12-17T13:41:34.980Z,-0.20
2022-12-17T13:44:05.569Z,-0.60
2022-12-17T13:46:46.888Z,-0.50
2022-12-17T13:49:20.212Z,-0.50
2022-12-17T13:51:48.546Z,-0.50
2022-12-17T13:54:20.198Z,-0.60
2022-12-17T13:56:48.165Z,0.30
2022-12-17T13:59:21.278Z,-0.50
2022-12-17T14:01:52.143Z,-0.30
2022-12-17T14:04:23.034Z,-0.40
2022-12-17T14:06:52.608Z,-0.50
2022-12-17T14:09:25.143Z,-0.50
2022-12-17T14:12:10.476Z,-0.40
2022-12-17T14:14:40.958Z,-0.30
2022-12-17T14:17:20.270Z,-0.40
2022-12-17T14:19:49.947Z,-0.50
2022-12-17T14:22:24.638Z,-0.60
2022-12-17T14:24:54.234Z,-0.50
2022-12-17T14:27:28.306Z,-0.50
2022-12-17T14:29:56.932Z,-0.60
2022-12-17T14:32:27.121Z,-0.70
2022-12-17T14:35:00.401Z,-0.70
2022-12-17T14:37:31.316Z,-0.50
2022-12-17T14:40:05.230Z,-0.40
2022-12-17T14:42:37.691Z,-0.40
2022-12-17T14:45:08.412Z,-0.30
2022-12-17T14:47:37.791Z,-0.30
2022-12-17T14:50:25.130Z,-0.40
2022-12-17T14:52:54.498Z,-0.50
2022-12-17T14:55:26.946Z,-0.60
2022-12-17T14:58:07.556Z,-0.60
2022-12-17T15:00:35.862Z,-0.60
2022-12-17T15:03:04.088Z,-0.50
2022-12-17T15:05:32.595Z,-0.60
2022-12-17T15:08:00.589Z,-0.60
2022-12-17T15:10:29.912Z,-0.60
2022-12-17T15:12:58.602Z,-0.60
2022-12-17T15:15:26.571Z,-0.60
2022-12-17T15:17:54.491Z,-0.70
2022-12-17T15:20:22.881Z,-0.80
2022-12-17T15:22:50.815Z,-1.00
2022-12-17T15:25:20.311Z,-1.00
2022-12-17T15:27:49.641Z,-1.00
2022-12-17T15:30:18.799Z,-0.90
2022-12-17T15:32:47.322Z,-0.70
2022-12-17T15:35:15.893Z,-0.70
2022-12-17T15:37:43.835Z,-0.70
2022-12-17T15:40:12.518Z,-0.90
2022-12-17T15:43:03.097Z,-0.90
2022-12-17T15:45:35.605Z,-1.00
2022-12-17T15:48:03.590Z,-1.00
2022-12-17T15:50:31.731Z,-1.10
2022-12-17T15:52:59.753Z,-1.20
2022-12-17T15:55:27.723Z,-1.20
2022-12-17T15:57:55.785Z,-1.20
2022-12-17T16:00:24.431Z,-1.30
2022-12-17T16:02:53.977Z,-1.30
2022-12-17T16:05:22.128Z,-1.20
2022-12-17T16:07:50.335Z,-1.20
2022-12-17T16:10:19.061Z,-0.80
2022-12-17T16:12:47.082Z,-1.00
2022-12-17T16:15:15.379Z,-1.00
2022-12-17T16:17:43.453Z,-0.90
2022-12-17T16:20:13.519Z,-1.10
2022-12-17T16:22:41.637Z,-1.70
2022-12-17T16:25:10.141Z,-1.10
2022-12-17T16:27:38.153Z,-1.10
2022-12-17T16:30:07.203Z,-1.00
2022-12-17T16:32:36.748Z,-1.10
2022-12-17T16:35:05.826Z,-1.10
2022-12-17T16:37:35.184Z,-1.30
2022-12-17T16:40:03.175Z,-1.30
2022-12-17T16:42:31.141Z,-1.30
2022-12-17T16:44:59.233Z,-1.40
2022-12-17T16:47:27.210Z,-1.40
2022-12-17T16:49:55.171Z,-1.50
2022-12-17T16:52:23.197Z,-1.50
2022-12-17T16:54:52.516Z,-1.70
2022-12-17T16:57:20.465Z,-1.70
2022-12-17T16:59:48.436Z,-1.70
2022-12-17T17:02:17.732Z,-1.80
2022-12-17T17:04:45.822Z,-1.70
2022-12-17T17:07:13.824Z,-1.70
2022-12-17T17:09:41.812Z,-1.70
2022-12-17T17:12:11.973Z,-1.80
2022-12-17T17:14:40.351Z,-1.80
2022-12-17T17:17:08.358Z,-1.70
2022-12-17T17:19:36.336Z,-1.80
2022-12-17T17:22:04.346Z,-1.60
2022-12-17T17:24:32.295Z,-1.50
2022-12-17T17:27:00.307Z,-1.50
2022-12-17T17:29:29.615Z,-1.40
2022-12-17T17:32:13.941Z,-1.40
2022-12-17T17:34:42.347Z,-1.40
2022-12-17T17:37:10.410Z,-1.50
2022-12-17T17:39:38.385Z,-1.40
2022-12-17T17:42:06.703Z,-1.40
2022-12-17T17:44:36.230Z,-1.40
2022-12-17T17:47:04.287Z,-1.30
2022-12-17T17:49:32.333Z,-1.30
2022-12-17T17:52:15.656Z,-1.40
2022-12-17T17:54:43.621Z,-1.40
2022-12-17T17:57:11.925Z,-1.50
2022-12-17T17:59:42.780Z,-1.50
2022-12-17T18:02:12.007Z,-1.70
2022-12-17T18:04:40.539Z,-1.70
2022-12-17T18:07:24.937Z,-1.60
2022-12-17T18:09:53.553Z,-1.60
2022-12-17T18:12:39.068Z,-1.50
2022-12-17T18:15:18.026Z,-1.40
2022-12-17T18:17:48.024Z,-1.30
2022-12-17T18:20:17.118Z,-1.30
2022-12-17T18:22:46.754Z,-1.40
2022-12-17T18:25:15.173Z,-1.60
2022-12-17T18:27:43.146Z,-1.80
2022-12-17T18:30:14.470Z,-1.80
2022-12-17T18:32:42.511Z,-1.90
2022-12-17T18:35:11.140Z,-2.00
2022-12-17T18:37:39.376Z,-2.10
2022-12-17T18:40:08.851Z,-2.10
2022-12-17T18:42:54.401Z,-2.00
2022-12-17T18:45:23.832Z,-2.00
2022-12-17T18:47:53.165Z,-1.80
2022-12-17T18:50:21.851Z,-0.90
2022-12-17T18:52:49.812Z,-1.90
2022-12-17T18:55:17.903Z,-1.90
2022-12-17T18:57:45.905Z,-1.90
2022-12-17T19:00:15.510Z,-1.90
2022-12-17T19:02:45.337Z,-2.00
2022-12-17T19:05:13.440Z,-1.90
2022-12-17T19:07:41.419Z,-1.90
2022-12-17T19:10:10.383Z,-1.80
2022-12-17T19:12:38.361Z,-1.60
2022-12-17T19:15:07.048Z,-1.50
2022-12-17T19:17:35.045Z,-1.40
2022-12-17T19:20:04.877Z,-1.40
2022-12-17T19:22:32.884Z,-1.40
2022-12-17T19:25:00.877Z,-1.40
2022-12-17T19:27:28.910Z,-1.50
2022-12-17T19:29:57.180Z,-1.50
2022-12-17T19:32:25.302Z,-1.40
2022-12-17T19:34:53.270Z,-1.30
2022-12-17T19:37:22.650Z,-1.30
2022-12-17T19:39:50.613Z,-1.20
2022-12-17T19:42:32.079Z,-1.30
2022-12-17T19:45:05.435Z,-1.30
2022-12-17T19:47:33.429Z,-1.50
2022-12-17T19:50:01.408Z,-1.50
2022-12-17T19:52:30.803Z,-1.60
2022-12-17T19:54:58.761Z,-1.60
2022-12-17T19:57:26.728Z,-1.50
2022-12-17T19:59:54.699Z,-1.50
2022-12-17T20:02:24.057Z,-1.40
2022-12-17T20:04:53.939Z,-1.40
2022-12-17T20:07:21.932Z,-1.30
2022-12-17T20:09:51.240Z,-1.40
2022-12-17T20:12:19.184Z,-1.40
2022-12-17T20:14:47.130Z,-1.50
2022-12-17T20:17:15.149Z,-1.40
2022-12-17T20:19:43.661Z,-1.40
2022-12-17T20:22:11.646Z,-1.50
2022-12-17T20:24:39.799Z,-1.50
2022-12-17T20:27:10.938Z,-1.40
2022-12-17T20:29:39.026Z,-1.30
2022-12-17T20:32:07.138Z,-1.30
2022-12-17T20:34:35.332Z,-1.40
2022-12-17T20:37:03.308Z,-1.60
2022-12-17T20:39:32.238Z,-1.70
2022-12-17T20:42:00.209Z,-1.70
2022-12-17T20:44:29.561Z,-1.70
2022-12-17T20:46:57.534Z,-1.60
2022-12-17T20:49:25.574Z,-1.80
2022-12-17T20:51:53.672Z,-1.70
2022-12-17T20:54:21.772Z,-1.60
2022-12-17T20:56:50.012Z,-1.50
2022-12-17T20:59:20.082Z,-1.50
2022-12-17T21:01:55.610Z,-1.40
2022-12-17T21:04:24.006Z,-1.50
2022-12-17T21:06:52.967Z,-1.60
2022-12-17T21:09:22.556Z,-1.70
2022-12-17T21:11:50.638Z,-1.70
2022-12-17T21:14:20.162Z,-1.80
2022-12-17T21:16:49.979Z,-1.90
2022-12-17T21:19:20.202Z,-1.90
2022-12-17T21:21:48.736Z,-1.90
2022-12-17T21:24:16.933Z,-1.80
2022-12-17T21:26:46.968Z,-1.80
2022-12-17T21:29:15.817Z,-1.70
2022-12-17T21:31:45.808Z,-1.60
2022-12-17T21:34:17.354Z,-1.60
2022-12-17T21:36:45.663Z,-1.70
2022-12-17T21:39:14.957Z,-1.60
2022-12-17T21:42:12.148Z,-1.50
2022-12-17T21:44:40.186Z,-1.50
2022-12-17T21:47:08.256Z,-1.60
2022-12-17T21:49:37.625Z,-1.60
2022-12-17T21:52:07.514Z,-1.60
2022-12-17T21:54:38.893Z,-1.70
2022-12-17T21:57:07.966Z,-1.70
2022-12-17T21:59:35.932Z,-1.70
2022-12-17T22:02:04.058Z,-1.70
2022-12-17T22:04:32.214Z,-1.70
2022-12-17T22:07:08.719Z,-1.70
2022-12-17T22:10:10.701Z,-1.60
2022-12-17T22:12:47.766Z,-1.70
2022-12-17T22:15:15.722Z,-1.60
2022-12-17T22:17:44.602Z,-1.50
2022-12-17T22:20:13.455Z,-1.50
2022-12-17T22:22:42.782Z,-1.30
2022-12-17T22:25:12.379Z,-1.40
2022-12-17T22:27:41.470Z,-1.30
2022-12-17T22:30:31.474Z,-1.30
2022-12-17T22:33:08.559Z,-1.30
2022-12-17T22:37:04.910Z,-1.40
2022-12-17T22:44:24.972Z,-1.30
2022-12-17T22:44:31.913Z,-1.20
2022-12-17T22:44:52.083Z,-1.20
2022-12-17T22:47:21.822Z,-1.30
2022-12-17T22:49:49.880Z,-1.30
2022-12-17T22:52:19.047Z,-1.20
2022-12-17T22:54:49.324Z,-1.20
2022-12-17T22:57:35.657Z,-1.20
2022-12-17T23:00:12.201Z,-1.40
2022-12-17T23:02:40.747Z,-1.50
2022-12-17T23:05:09.148Z,-1.50
2022-12-17T23:07:37.146Z,-1.60
2022-12-17T23:10:07.184Z,-1.60
2022-12-17T23:12:54.865Z,-1.60
2022-12-17T23:15:26.748Z,-1.50
2022-12-17T23:17:56.063Z,-1.50
2022-12-17T23:20:24.785Z,-1.50
2022-12-17T23:22:52.778Z,-1.30
2022-12-17T23:25:22.948Z,-1.30
2022-12-17T23:27:51.771Z,-1.40
2022-12-17T23:30:20.930Z,-1.40
2022-12-17T23:32:49.105Z,-1.40
2022-12-17T23:35:17.136Z,-1.50
2022-12-17T23:37:45.153Z,-1.40
2022-12-17T23:40:14.017Z,-1.50
2022-12-17T23:42:43.404Z,-2.10
2022-12-17T23:45:12.125Z,-1.40
2022-12-17T23:47:41.157Z,-1.40
2022-12-17T23:50:11.119Z,-1.40
2022-12-17T23:52:39.721Z,-1.30
2022-12-17T23:55:08.810Z,-1.10
2022-12-17T23:57:36.758Z,-1.20
